KHOU

William P. Hobby Airport

Airport
ICAO code
KHOU
Summary
ICAO Region
NAM
ICAO Territory
Location

Houston, Texas,

Elevation
46 ft
Coordinates
29° 39' 15" N , 95° 16' 36" W
KCC
Metar
KHOU 250353Z 15009KT 10SM FEW020 28/25 A2979 RMK AO2 SLP090 T02780250

Description

William P. Hobby Airport is a public use airport located 11km from the central business district of Houston, Texas.

Climatology

Humid “subtropical” climate (Köppen climate classification Cfa) - characterized by hot, humid summers and cool winters. Significant amounts of precipitation occur in all seasons in most areas. Winter rainfall (and sometimes snowfall) is associated with large storms that the westerlies steer from west to east. Most summer rainfall occurs during thunderstorms and occasional tropical storms (hurricanes).

Airport map

Aerial View

SKYbrary Partners:

Safety knowledge contributed by: